Terminal Aerodrome Forecast
Issued by NWS

Home | Current Version | Previous Version | Text Only | Print | Product List | Glossary On
Versions: 1 2 3 4 5 6 7 8 9 10 11 12 13 14 15 16 17 18 19
355
FTUS43 KLSX 241727
TAFUIN
TAF
KUIN 241727Z 2418/2518 31012G20KT P6SM FEW050
     FM242300 30009KT P6SM FEW090
     FM250200 24005KT P6SM FEW100
     FM250800 29009KT P6SM FEW050=

USA.gov is the U.S. government's official web portal to all federal, state and local government web resources and services.